AirNav   Air Wisconsin Up To $57,000 Bonus
 
 1089 users online  

62CL Flying Pear Ranch Airport
Caliente, California, USA

GOING TO CALIENTE?


FAA INFORMATION EFFECTIVE 01 DECEMBER 2022

Location

FAA Identifier: 62CL
Lat/Long: 35-24-25.8450N 118-30-00.3120W
35-24.430750N 118-30.005200W
35.4071792,-118.5000867
(estimated)
Elevation: 3485 ft. / 1062.2 m (surveyed)
Variation: 14E (1985)
From city: 9 miles NE of CALIENTE, CA
Time zone: UTC -8 (UTC -7 during Daylight Saving Time)
Zip code: 93518

Airport Operations

Airport use: Private use. Permission required prior to landing
Activation date: 07/1967
Control tower: no
ARTCC: LOS ANGELES CENTER
FSS: RANCHO MURIETA FLIGHT SERVICE STATION
Attendance: UNATNDD
Wind indicator: yes
Segmented circle: no
Landing fee: yes

Airport Communications

WX AWOS-3P at TSP (17 nm S): 120.025 (661-823-0473)

Nearby radio navigation aids

VOR radial/distance  VOR name  Freq  Var
EHFr085/29.6SHAFTER VORTAC115.4014E
TTEr124/39.6TULE VOR/DME116.2516E

Airport Services

Airframe service: NONE
Powerplant service: NONE

Runway Information

Runway 7/25

Dimensions: 3750 x 50 ft. / 1143 x 15 m
Surface: dirt
RUNWAY 7  RUNWAY 25
Traffic pattern: leftleft
Displaced threshold: no500 ft.
Obstructions: nonepline

Airport Ownership and Management from official FAA records

Ownership: Privately-owned
Owner: MICHAEL J KENT RET TRUST
2801 OCEAN PARK BLVD, UNIT 314
SANTA MONICA, CA 90405
Phone 310-293-7041
Manager: MICHAEL J KENT
2801 OCEAN PARK BLVD, UNIT 314
SANTA MONICA, CA 90405
Phone 310-293-7041

Airport Operational Statistics

Aircraft based on the field: 1
Single engine airplanes: 1
    
Aircraft operations: 32/year *
62% transient general aviation
38% local general aviation
* for 12-month period ending 06 July 2022

Additional Remarks

FOR CD CTC JOSHUA APCH AT 661-277-3843.
MUST OBTAIN PMSN FROM OWNER TO ENTER, LAND, OR TKOF.

Instrument Procedures

There are no published instrument procedures at 62CL.

Some nearby airports with instrument procedures:

L45 - Bakersfield Municipal Airport (25 nm W)
KMHV - Mojave Air & Space Port/Rutan Field (27 nm SE)
KBFL - Meadows Field Airport (27 nm W)
L71 - California City Municipal Airport (28 nm SE)
KMIT - Shafter Airport-Minter Field (34 nm W)
 
Loc | Ops | Rwys | IFR | FBO | Links
Com | Nav | Svcs | Stats | Notes
Area around 62CL (Flying Pear Ranch Airport)
 
Road maps at: MapQuest Bing Google
 
Aerial photo
No photo
 
Sectional chart

 
Airport distance calculator
Flying to Flying Pear Ranch Airport? Find the distance to fly.

From to 62CL

Sunrise and sunset
Times for 06-Dec-2022
 Local
(UTC-8)
 Zulu
(UTC)
Morning civil twilight06:2214:22
Sunrise06:5014:50
Sunset16:4000:40
Evening civil twilight17:0801:08

Current date and time
Zulu (UTC)  07-Dec-2022 03:06:15
Local (UTC-8)  06-Dec-2022 19:06:15
 
METAR
KTSP 
17nm S 
070255Z AUTO 25004KT 9SM CLR 01/M00 A3004 RMK AO2 LTG DSNT NW
KMHV 
27nm SE 
070300Z AUTO 27006KT 10SM CLR 06/M02 A3000 RMK A01 LTG DSNT NW
KBFL 
27nm W 
070254Z 31011KT 10SM FEW100 11/06 A3005 RMK AO2 SLP174 T01060061 53016
TAF
KBFL 
27nm W 
061727Z 0618/0718 VRB06KT P6SM FEW150 FM062100 30006KT P6SM SCT150 FM070200 34006KT P6SM SCT050 BKN150 TEMPO 0702/0706 -SHRA BKN050 FM070600 VRB04KT P6SM BKN050
NOTAMs
Click for the latest NOTAMs
NOTAMs are issued by the DoD/FAA and will open in a separate window not controlled by AirNav.

 

 
 

Would you like to see your business listed on this page?

 If your business provides an interesting product or service to pilots, flight crews, aircraft, or users of the Flying Pear Ranch Airport, you should consider listing it here.  To start the listing process, click on the button below
 
Add a business
 

Other Pages about Flying Pear Ranch Airport

Update a link
 
Copyright © AirNav, LLC. All rights reserved. Privacy Policy  Contact